113 Куст

Карта отелей и гостиниц, располагающихся рядом с аэропортом 113 Куст :

1100-й км Ханты-Мансийский автономный округ - Югра 61° 19' 17.4612" N, 62° 32' 4.4412" E
113 Куст Ямало-Ненецкий автономный округ 66° 47' 4.8588" N, 79° 35' 34.9188" E
Код аэродрома ИКАО
HB65
Код аэродрома RU
ХБ65
Координаты
N66.78468° E079.59303°
Превышение над уровнем моря
46
Основная полоса
Курс магнитный
Длина основной ВПП
Ширина основной ВПП
Покрытие основной ВПП
Освещение ВПП
Тип: 
Вертодром
Класс аэродрома: 
Принадлежность: 
Статус: 
Недействующий
Сайт: 
E-mail аэродрома: 
Страна: 
Россия
Регион: 
Ямало-Ненецкий автономный округ
Город: 
Дополнительная информация: 


Найти трансфер

С помощью этой формы Вы можете найти трансфер из аэропорта 113 Куст в город, аэропорт или вокзал:

Погода в аэропортах:

Авиационная погода в аэропорту Имени Алексея Леонова

Регион: 
Погода METAR: 
UNEE 291030Z 29002MPS 7000 -RA BKN049 14/12 Q1011 R23/290155 NOSIG RMK QFE735
Время наблюдения
2022-05-29T10:30:00Z
Температура C
14.0
Точка росы
12.0
Направление ветра
290
Скорость ветра (узлы)
4
Метео видимость
4.35
Облачность
BKN
Нижняя граница облачности (футы)
4900
Явления погоды
-RA
Условия полета
MVFR
Аэропорт подробнее: 
BKN – значительная (рассеянная, разорванная) облачность;
-RA - слабый дождь;

Авиационная погода в Москва - Домодедово

Погода METAR: 
UUDD 291030Z 25006G11MPS 170V270 9999 -SHRA BKN050CB 12/05 Q1012 R32L/290045 NOSIG
Время наблюдения
2022-05-29T10:30:00Z
Температура C
12.0
Точка росы
5.0
Направление ветра
250
Скорость ветра (узлы)
12
Метео видимость
6.21
Облачность
BKN
Нижняя граница облачности (футы)
5000
Явления погоды
-SHRA
Условия полета
VFR
Аэропорт подробнее: 
BKN – значительная (рассеянная, разорванная) облачность;
-SHRA - слабый ливневой дождь;

Авиационная погода в аэропорту Бесовец

Регион: 
Погода METAR: 
ULPB 291030Z VRB01MPS 9999 -RA SCT016 OVC043 14/12 Q1003 R19/09//60 NOSIG RMK QFE748/0998
Время наблюдения
2022-05-29T10:30:00Z
Температура C
14.0
Точка росы
12.0
Направление ветра
0
Скорость ветра (узлы)
2
Метео видимость
6.21
Облачность
SCT
OVC
Нижняя граница облачности (футы)
1600
4300
Явления погоды
-RA
Условия полета
VFR
Аэропорт подробнее: 
SCT – разбросанная отдельная облачность; OVC – сплошная облачность;
-RA - слабый дождь;

Авиационная погода в Бухте Провидения

Погода METAR: 
UHMD 270400Z 18005MPS 6000 BCFG SCT006 02/00 Q1016 RMK QBB200 MT OBSC QFE761/1015
Время наблюдения
2022-05-27T04:00:00Z
Температура C
2.0
Точка росы
0.0
Направление ветра
180
Скорость ветра (узлы)
10
Метео видимость
3.73
Облачность
SCT
Нижняя граница облачности (футы)
600
Явления погоды
BCFG
Условия полета
MVFR
Аэропорт подробнее: 
SCT – разбросанная отдельная облачность;
FG – туман (небо не видно, температура воздуха выше нуля или ноль);